Terminal Aerodrome Forecast
Issued by NWS

Home | Current Version | Previous Version | Text Only | Print | Product List | Glossary On
Versions: 1 2 3 4 5 6 7 8 9 10 11 12
417
FTUS45 KPSR 252330
TAFBLH
TAF
KBLH 252330Z 2600/2624 23014G20KT P6SM SKC
     FM260400 24010KT P6SM SKC
     FM261000 30006KT P6SM SKC
     FM261800 25012KT P6SM FEW250=

USA.gov is the U.S. government's official web portal to all federal, state and local government web resources and services.